createdAt,value
2019-02-02T00:01:28.274Z,43.18
2019-02-02T00:03:56.056Z,43.36
2019-02-02T00:06:23.812Z,44.37
2019-02-02T00:08:51.563Z,43.70
2019-02-02T00:11:19.429Z,43.62
2019-02-02T00:13:47.177Z,43.75
2019-02-02T00:16:14.896Z,43.50
2019-02-02T00:18:42.667Z,43.46
2019-02-02T00:21:10.408Z,43.76
2019-02-02T00:23:38.160Z,43.38
2019-02-02T00:26:06.020Z,43.76
2019-02-02T00:28:33.760Z,43.65
2019-02-02T00:31:01.495Z,43.27
2019-02-02T00:33:29.244Z,43.13
2019-02-02T00:35:57.155Z,44.06
2019-02-02T00:38:24.860Z,43.56
2019-02-02T00:40:52.618Z,43.32
2019-02-02T00:43:20.412Z,43.75
2019-02-02T00:45:48.204Z,43.81
2019-02-02T00:48:15.960Z,44.27
2019-02-02T00:50:43.817Z,44.44
2019-02-02T00:53:11.768Z,45.42
2019-02-02T00:55:39.514Z,44.21
2019-02-02T00:58:07.294Z,43.94
2019-02-02T01:00:35.046Z,43.47
2019-02-02T01:03:02.863Z,43.92
2019-02-02T01:05:30.617Z,44.49
2019-02-02T01:07:58.433Z,43.72
2019-02-02T01:10:27.484Z,43.66
2019-02-02T01:12:55.240Z,43.77
2019-02-02T01:15:23.076Z,44.25
2019-02-02T01:17:50.916Z,43.67
2019-02-02T01:20:18.684Z,43.63
2019-02-02T01:22:46.666Z,43.62
2019-02-02T01:25:14.409Z,43.70
2019-02-02T01:27:42.166Z,43.52
2019-02-02T01:30:16.267Z,44.11
2019-02-02T01:32:44.069Z,44.56
2019-02-02T01:35:12.408Z,43.94
2019-02-02T01:37:40.175Z,43.50
2019-02-02T01:40:09.032Z,43.21
2019-02-02T01:42:36.800Z,45.17
2019-02-02T01:45:05.389Z,44.35
2019-02-02T01:47:33.111Z,44.08
2019-02-02T01:50:00.839Z,44.09
2019-02-02T01:52:28.735Z,42.83
2019-02-02T01:54:56.467Z,43.99
2019-02-02T01:57:24.485Z,43.95
2019-02-02T01:59:52.191Z,44.40
2019-02-02T02:02:19.940Z,44.26
2019-02-02T02:04:47.677Z,43.87
2019-02-02T02:07:15.425Z,43.07
2019-02-02T02:09:43.164Z,44.71
2019-02-02T02:12:10.981Z,44.08
2019-02-02T02:14:38.710Z,43.64
2019-02-02T02:17:06.477Z,43.72
2019-02-02T02:19:34.538Z,43.67
2019-02-02T02:22:02.352Z,44.33
2019-02-02T02:24:30.089Z,45.03
2019-02-02T02:26:58.157Z,46.42
2019-02-02T02:29:25.885Z,43.93
2019-02-02T02:31:55.378Z,44.13
2019-02-02T02:34:23.433Z,43.81
2019-02-02T02:36:51.163Z,45.59
2019-02-02T02:39:18.897Z,44.52
2019-02-02T02:41:46.632Z,45.40
2019-02-02T02:44:14.391Z,44.27
2019-02-02T02:46:42.144Z,44.42
2019-02-02T02:49:09.892Z,45.12
2019-02-02T02:51:37.633Z,44.45
2019-02-02T02:54:05.408Z,43.41
2019-02-02T02:56:33.188Z,44.93
2019-02-02T02:59:01.013Z,43.70
2019-02-02T03:01:28.759Z,45.43
2019-02-02T03:03:56.493Z,45.14
2019-02-02T03:06:24.239Z,45.09
2019-02-02T03:08:51.988Z,43.77
2019-02-02T03:11:19.733Z,44.31
2019-02-02T03:13:47.496Z,43.63
2019-02-02T03:16:15.255Z,43.95
2019-02-02T03:18:43.088Z,43.98
2019-02-02T03:21:10.852Z,44.86
2019-02-02T03:23:38.580Z,45.41
2019-02-02T03:26:06.321Z,45.00
2019-02-02T03:28:34.063Z,45.70
2019-02-02T03:31:02.077Z,45.01
2019-02-02T03:33:29.889Z,46.33
2019-02-02T03:35:57.878Z,46.51
2019-02-02T03:38:25.624Z,46.00
2019-02-02T03:40:53.356Z,45.50
2019-02-02T03:43:21.285Z,44.44
2019-02-02T03:45:49.155Z,44.89
2019-02-02T03:48:16.895Z,45.90
2019-02-02T03:50:44.637Z,44.95
2019-02-02T03:53:12.683Z,45.04
2019-02-02T03:55:40.471Z,46.15
2019-02-02T03:58:08.267Z,47.06
2019-02-02T04:00:36.085Z,47.86
2019-02-02T04:03:03.826Z,47.39
2019-02-02T04:05:31.634Z,45.93
2019-02-02T04:07:59.439Z,45.62
2019-02-02T04:10:27.181Z,46.91
2019-02-02T04:12:54.928Z,44.72
2019-02-02T04:15:22.826Z,45.56
2019-02-02T04:17:50.827Z,45.42
2019-02-02T04:20:19.475Z,45.39
2019-02-02T04:22:47.350Z,45.88
2019-02-02T04:25:15.212Z,44.22
2019-02-02T04:27:43.016Z,45.89
2019-02-02T04:30:12.128Z,44.58
2019-02-02T04:32:39.855Z,45.47
2019-02-02T04:35:08.403Z,44.52
2019-02-02T04:37:38.162Z,44.66
2019-02-02T04:40:05.661Z,47.58
2019-02-02T04:42:33.472Z,46.82
2019-02-02T04:45:01.218Z,45.88
2019-02-02T04:47:29.081Z,46.23
2019-02-02T04:49:56.948Z,46.80
2019-02-02T04:52:24.688Z,46.22
2019-02-02T04:54:52.433Z,45.44
2019-02-02T04:57:20.177Z,47.39
2019-02-02T04:59:47.940Z,46.17
2019-02-02T05:02:15.668Z,46.78
2019-02-02T05:04:43.423Z,47.07
2019-02-02T05:07:11.286Z,45.66
2019-02-02T05:09:39.077Z,45.72
2019-02-02T05:12:06.829Z,47.58
2019-02-02T05:14:34.571Z,45.87
2019-02-02T05:17:02.476Z,46.26
2019-02-02T05:19:30.208Z,45.67
2019-02-02T05:21:57.941Z,45.24
2019-02-02T05:24:25.687Z,45.68
2019-02-02T05:26:53.418Z,45.28
2019-02-02T05:29:21.173Z,44.55
2019-02-02T05:31:48.961Z,45.87
2019-02-02T05:34:16.743Z,44.81
2019-02-02T05:36:44.489Z,46.97
2019-02-02T05:39:12.221Z,46.19
2019-02-02T05:41:39.978Z,45.12
2019-02-02T05:44:07.715Z,45.69
2019-02-02T05:46:35.446Z,45.55
2019-02-02T05:49:03.191Z,45.88
2019-02-02T05:51:30.928Z,45.13
2019-02-02T05:53:58.684Z,45.45
2019-02-02T05:56:26.425Z,45.91
2019-02-02T05:58:54.248Z,45.28
2019-02-02T06:01:22.049Z,45.35
2019-02-02T06:03:49.796Z,44.85
2019-02-02T06:06:17.556Z,45.12
2019-02-02T06:08:45.279Z,45.98
2019-02-02T06:11:13.013Z,44.78
2019-02-02T06:13:40.748Z,45.10
2019-02-02T06:16:08.477Z,45.66
2019-02-02T06:18:36.241Z,45.72
2019-02-02T06:21:03.980Z,45.35
2019-02-02T06:23:31.800Z,46.20
2019-02-02T06:25:59.621Z,46.05
2019-02-02T06:28:27.480Z,45.54
2019-02-02T06:30:55.201Z,45.43
2019-02-02T06:33:22.925Z,44.89
2019-02-02T06:35:50.660Z,46.85
2019-02-02T06:38:18.493Z,46.40
2019-02-02T06:40:46.255Z,46.25
2019-02-02T06:43:14.082Z,45.75
2019-02-02T06:45:42.094Z,46.01
2019-02-02T06:48:09.837Z,46.17
2019-02-02T06:50:37.699Z,45.34
2019-02-02T06:53:05.760Z,45.36
2019-02-02T06:55:33.873Z,45.78
2019-02-02T06:58:01.614Z,45.04
2019-02-02T07:00:29.340Z,45.37
2019-02-02T07:02:57.095Z,45.33
2019-02-02T07:05:24.979Z,45.38
2019-02-02T07:07:52.717Z,45.42
2019-02-02T07:10:21.654Z,45.35
2019-02-02T07:12:49.406Z,46.05
2019-02-02T07:15:17.530Z,45.97
2019-02-02T07:17:45.365Z,45.69
2019-02-02T07:20:13.441Z,45.05
2019-02-02T07:22:41.250Z,45.27
2019-02-02T07:25:09.137Z,45.11
2019-02-02T07:27:36.970Z,45.67
2019-02-02T07:30:05.648Z,45.47
2019-02-02T07:32:33.618Z,45.65
2019-02-02T07:35:01.463Z,45.86
2019-02-02T07:37:29.193Z,46.07
2019-02-02T07:39:56.960Z,46.07
2019-02-02T07:42:24.813Z,47.82
2019-02-02T07:44:52.564Z,47.54
2019-02-02T07:47:20.542Z,47.31
2019-02-02T07:49:48.432Z,48.02
2019-02-02T07:52:16.160Z,47.97
2019-02-02T07:54:43.916Z,47.36
2019-02-02T07:57:11.836Z,47.44
2019-02-02T07:59:39.590Z,49.23
2019-02-02T08:02:07.393Z,47.81
2019-02-02T08:04:35.234Z,46.83
2019-02-02T08:07:02.964Z,47.91
2019-02-02T08:09:31.032Z,48.38
2019-02-02T08:11:58.793Z,47.89
2019-02-02T08:14:26.514Z,46.95
2019-02-02T08:16:54.255Z,48.36
2019-02-02T08:19:22.004Z,48.38
2019-02-02T08:21:49.923Z,48.35
2019-02-02T08:24:17.680Z,48.64
2019-02-02T08:26:45.417Z,47.49
2019-02-02T08:29:13.159Z,47.17
2019-02-02T08:31:41.020Z,48.25
2019-02-02T08:34:08.760Z,48.47
2019-02-02T08:36:36.487Z,47.38
2019-02-02T08:39:06.647Z,47.04
2019-02-02T08:41:34.385Z,47.55
2019-02-02T08:44:02.241Z,46.88
2019-02-02T08:46:30.085Z,47.42
2019-02-02T08:48:57.925Z,47.77
2019-02-02T08:51:25.684Z,48.09
2019-02-02T08:53:53.574Z,48.85
2019-02-02T08:56:21.308Z,45.90
2019-02-02T08:58:49.048Z,45.19
2019-02-02T09:01:16.768Z,47.21
2019-02-02T09:03:44.749Z,46.43
2019-02-02T09:06:12.536Z,45.26
2019-02-02T09:08:40.281Z,44.89
2019-02-02T09:11:08.029Z,46.87
2019-02-02T09:13:36.864Z,46.04
2019-02-02T09:16:04.935Z,45.90
2019-02-02T09:18:32.781Z,46.50
2019-02-02T09:21:00.634Z,45.24
2019-02-02T09:23:28.517Z,47.25
2019-02-02T09:25:56.403Z,45.58
2019-02-02T09:28:24.145Z,49.22
2019-02-02T09:30:51.909Z,46.67
2019-02-02T09:33:20.256Z,44.75
2019-02-02T09:35:47.973Z,47.02
2019-02-02T09:38:16.216Z,46.24
2019-02-02T09:40:43.957Z,47.02
2019-02-02T09:43:11.800Z,47.08
2019-02-02T09:45:39.579Z,47.24
2019-02-02T09:48:07.357Z,47.31
2019-02-02T09:50:35.501Z,47.80
2019-02-02T09:53:03.256Z,47.73
2019-02-02T09:55:31.158Z,49.31
2019-02-02T09:58:00.437Z,49.33
2019-02-02T10:00:28.930Z,47.17
2019-02-02T10:02:56.726Z,45.88
2019-02-02T10:05:24.755Z,47.86
2019-02-02T10:07:52.499Z,46.44
2019-02-02T10:10:21.187Z,46.35
2019-02-02T10:12:49.212Z,48.87
2019-02-02T10:15:17.244Z,47.28
2019-02-02T10:17:45.169Z,47.05
2019-02-02T10:20:14.007Z,48.52
2019-02-02T10:22:41.761Z,46.86
2019-02-02T10:25:10.068Z,46.95
2019-02-02T10:27:37.817Z,47.08
2019-02-02T10:30:06.305Z,48.57
2019-02-02T10:32:34.271Z,49.10
2019-02-02T10:35:02.002Z,46.04
2019-02-02T10:37:29.853Z,47.44
2019-02-02T10:39:57.659Z,47.56
2019-02-02T10:42:25.431Z,46.53
2019-02-02T10:44:53.163Z,48.39
2019-02-02T10:47:20.967Z,45.12
2019-02-02T10:49:48.989Z,48.35
2019-02-02T10:52:16.716Z,46.94
2019-02-02T10:54:44.639Z,49.91
2019-02-02T10:57:12.389Z,44.98
2019-02-02T10:59:40.664Z,46.96
2019-02-02T11:02:08.476Z,48.10
2019-02-02T11:04:36.220Z,45.40
2019-02-02T11:07:04.418Z,46.22
2019-02-02T11:09:32.381Z,47.98
2019-02-02T11:12:00.330Z,48.94
2019-02-02T11:14:28.188Z,47.05
2019-02-02T11:16:55.985Z,45.56
2019-02-02T11:19:23.843Z,47.42
2019-02-02T11:21:52.022Z,47.02
2019-02-02T11:24:19.838Z,50.73
2019-02-02T11:26:47.808Z,49.22
2019-02-02T11:29:16.435Z,47.23
2019-02-02T11:31:44.512Z,49.63
2019-02-02T11:34:12.459Z,45.88
2019-02-02T11:36:40.298Z,46.88
2019-02-02T11:39:08.135Z,45.79
2019-02-02T11:41:35.967Z,52.26
2019-02-02T11:44:03.991Z,48.35
2019-02-02T11:46:32.113Z,47.25
2019-02-02T11:48:59.922Z,49.51
2019-02-02T11:51:28.059Z,46.63
2019-02-02T11:53:55.943Z,49.38
2019-02-02T11:56:41.189Z,45.10
2019-02-02T11:59:12.235Z,50.07
2019-02-02T12:01:39.991Z,48.52
2019-02-02T12:04:07.799Z,46.97
2019-02-02T12:06:35.635Z,48.24
2019-02-02T12:09:04.498Z,48.36
2019-02-02T12:11:32.255Z,48.12
2019-02-02T12:13:59.956Z,48.78
2019-02-02T12:16:27.732Z,47.58
2019-02-02T12:18:55.571Z,46.86
2019-02-02T12:21:23.352Z,47.58
2019-02-02T12:23:51.102Z,50.73
2019-02-02T12:26:19.830Z,45.79
2019-02-02T12:28:49.558Z,48.82
2019-02-02T12:31:18.070Z,47.76
2019-02-02T12:33:48.082Z,48.29
2019-02-02T12:36:16.919Z,47.90
2019-02-02T12:38:44.644Z,49.59
2019-02-02T12:41:12.402Z,51.29
2019-02-02T12:43:40.127Z,49.45
2019-02-02T12:46:08.123Z,48.78
2019-02-02T12:48:35.836Z,46.77
2019-02-02T12:51:06.347Z,47.70
2019-02-02T12:53:34.546Z,50.49
2019-02-02T12:56:05.599Z,48.96
2019-02-02T12:58:33.376Z,45.93
2019-02-02T13:01:01.210Z,47.62
2019-02-02T13:03:30.326Z,50.43
2019-02-02T13:06:00.054Z,48.77
2019-02-02T13:08:35.127Z,48.33
2019-02-02T13:11:02.842Z,48.92
2019-02-02T13:13:30.721Z,48.25
2019-02-02T13:15:58.487Z,47.14
2019-02-02T13:18:26.355Z,48.37
2019-02-02T13:20:54.243Z,45.95
2019-02-02T13:23:22.408Z,48.47
2019-02-02T13:25:50.141Z,49.30
2019-02-02T13:28:18.007Z,45.72
2019-02-02T13:30:45.895Z,49.15
2019-02-02T13:33:13.660Z,47.01
2019-02-02T13:35:42.493Z,50.35
2019-02-02T13:38:10.262Z,46.33
2019-02-02T13:40:38.535Z,49.20
2019-02-02T13:43:06.361Z,46.72
2019-02-02T13:45:34.111Z,48.54
2019-02-02T13:48:01.852Z,47.55
2019-02-02T13:50:29.784Z,49.31
2019-02-02T13:52:57.624Z,46.86
2019-02-02T13:55:25.388Z,47.11
2019-02-02T13:57:53.160Z,47.86
2019-02-02T14:00:22.119Z,46.71
2019-02-02T14:03:01.531Z,47.71
2019-02-02T14:05:19.619Z,47.73
2019-02-02T14:07:47.451Z,48.01
2019-02-02T14:10:16.382Z,47.88
2019-02-02T14:12:44.248Z,49.57
2019-02-02T14:15:11.981Z,48.43
2019-02-02T14:17:39.748Z,49.31
2019-02-02T14:20:07.979Z,49.36
2019-02-02T14:22:37.564Z,48.34
2019-02-02T14:25:05.912Z,47.46
2019-02-02T14:27:33.640Z,47.16
2019-02-02T14:30:01.400Z,48.79
2019-02-02T14:32:29.152Z,49.12
2019-02-02T14:34:57.029Z,46.92
2019-02-02T14:43:22.231Z,46.56
2019-02-02T14:45:49.938Z,47.19
2019-02-02T14:48:17.684Z,48.27
2019-02-02T14:50:45.392Z,46.92
2019-02-02T14:53:13.106Z,46.16
2019-02-02T14:55:46.593Z,47.72
2019-02-02T14:58:14.417Z,48.34
2019-02-02T15:00:44.792Z,47.36
2019-02-02T15:03:25.726Z,48.17
2019-02-02T15:06:01.750Z,46.93
2019-02-02T15:08:32.440Z,47.16
2019-02-02T15:11:00.269Z,48.74
2019-02-02T15:13:28.227Z,47.08
2019-02-02T15:15:56.098Z,48.53
2019-02-02T15:18:23.876Z,47.06
2019-02-02T15:20:51.636Z,47.97
2019-02-02T15:23:19.476Z,49.45
2019-02-02T15:27:10.278Z,49.13
2019-02-02T15:29:19.938Z,49.19
2019-02-02T15:32:43.441Z,49.61
2019-02-02T15:36:31.371Z,49.00
2019-02-02T15:38:38.347Z,49.32
2019-02-02T15:41:30.618Z,46.38
2019-02-02T15:44:04.445Z,47.11
2019-02-02T15:47:02.913Z,48.22
2019-02-02T15:49:32.863Z,46.45
2019-02-02T15:52:16.369Z,46.03
2019-02-02T16:01:42.970Z,47.69
2019-02-02T16:04:19.664Z,50.46
2019-02-02T16:07:32.496Z,49.04
2019-02-02T16:09:57.762Z,49.05
2019-02-02T16:12:25.583Z,47.96
2019-02-02T16:14:55.362Z,50.19
2019-02-02T16:17:37.333Z,49.52
2019-02-02T16:20:05.292Z,47.41
2019-02-02T16:22:33.068Z,48.34
2019-02-02T16:25:00.816Z,50.17
2019-02-02T16:27:28.567Z,48.49
2019-02-02T16:29:56.313Z,48.65
2019-02-02T16:32:24.161Z,46.96
2019-02-02T16:34:51.900Z,48.12
2019-02-02T16:37:19.639Z,48.11
2019-02-02T16:39:47.391Z,47.03
2019-02-02T16:42:15.560Z,50.72
2019-02-02T16:44:43.303Z,47.53
2019-02-02T16:47:11.062Z,47.82
2019-02-02T16:49:39.699Z,47.62
2019-02-02T16:52:07.537Z,48.42
2019-02-02T16:54:35.279Z,46.77
2019-02-02T16:57:03.020Z,48.25
2019-02-02T16:59:30.819Z,47.46
2019-02-02T17:01:58.713Z,46.63
2019-02-02T17:04:26.451Z,47.17
2019-02-02T17:06:54.215Z,48.88
2019-02-02T17:09:22.111Z,46.75
2019-02-02T17:11:49.944Z,47.47
2019-02-02T17:14:18.054Z,48.52
2019-02-02T17:16:46.112Z,50.30
2019-02-02T17:19:13.920Z,43.97
2019-02-02T17:21:41.844Z,46.06
2019-02-02T17:24:09.653Z,46.86
2019-02-02T17:26:37.539Z,47.98
2019-02-02T17:29:05.301Z,49.31
2019-02-02T17:31:33.101Z,47.09
2019-02-02T17:34:00.859Z,47.83
2019-02-02T17:36:28.669Z,46.24
2019-02-02T17:38:56.576Z,47.60
2019-02-02T17:41:24.320Z,49.16
2019-02-02T17:43:52.070Z,45.52
2019-02-02T17:46:19.880Z,45.78
2019-02-02T17:48:47.701Z,49.00
2019-02-02T17:51:16.649Z,46.14
2019-02-02T17:53:44.745Z,46.25
2019-02-02T17:56:13.633Z,51.10
2019-02-02T17:58:41.412Z,44.69
2019-02-02T18:01:09.142Z,46.14
2019-02-02T18:03:36.877Z,49.00
2019-02-02T18:06:04.690Z,50.42
2019-02-02T18:08:32.496Z,46.18
2019-02-02T18:11:00.363Z,45.58
2019-02-02T18:13:28.113Z,47.68
2019-02-02T18:15:55.868Z,47.39
2019-02-02T18:18:23.638Z,47.70
2019-02-02T18:20:51.372Z,48.92
2019-02-02T18:23:19.134Z,48.93
2019-02-02T18:25:46.912Z,47.89
2019-02-02T18:28:14.668Z,49.28
2019-02-02T18:30:42.594Z,46.40
2019-02-02T18:33:10.343Z,48.97
2019-02-02T18:35:38.089Z,49.09
2019-02-02T18:38:06.000Z,48.63
2019-02-02T18:40:33.876Z,48.94
2019-02-02T18:43:01.605Z,50.24
2019-02-02T18:45:29.351Z,49.71
2019-02-02T18:47:57.126Z,49.41
2019-02-02T18:50:24.875Z,49.74
2019-02-02T18:52:52.940Z,51.76
2019-02-02T18:55:25.006Z,50.34
2019-02-02T18:57:52.783Z,50.41
2019-02-02T19:00:20.606Z,49.27
2019-02-02T19:02:48.346Z,49.46
2019-02-02T19:05:16.116Z,51.62
2019-02-02T19:07:43.991Z,50.26
2019-02-02T19:10:13.152Z,49.46
2019-02-02T19:12:41.087Z,50.55
2019-02-02T19:15:09.112Z,49.78
2019-02-02T19:17:36.871Z,49.35
2019-02-02T19:20:05.519Z,49.75
2019-02-02T19:22:33.457Z,48.80
2019-02-02T19:25:01.196Z,48.82
2019-02-02T19:27:28.927Z,48.81
2019-02-02T19:29:56.708Z,48.90
2019-02-02T19:32:24.492Z,48.06
2019-02-02T19:34:52.334Z,48.53
2019-02-02T19:37:21.156Z,48.43
2019-02-02T19:39:49.045Z,48.76
2019-02-02T19:42:25.220Z,50.09
2019-02-02T19:44:52.984Z,48.43
2019-02-02T19:47:20.717Z,49.10
2019-02-02T19:49:48.525Z,48.59
2019-02-02T19:52:16.250Z,49.21
2019-02-02T19:54:44.113Z,47.37
2019-02-02T19:57:11.960Z,49.43
2019-02-02T19:59:39.715Z,47.76
2019-02-02T20:02:07.468Z,50.47
2019-02-02T20:04:35.207Z,49.90
2019-02-02T20:07:02.982Z,49.23
2019-02-02T20:09:30.763Z,48.15
2019-02-02T20:11:58.758Z,47.20
2019-02-02T20:14:26.507Z,50.22
2019-02-02T20:16:54.250Z,48.92
2019-02-02T20:19:22.049Z,47.34
2019-02-02T20:21:49.903Z,48.53
2019-02-02T20:24:17.819Z,47.54
2019-02-02T20:26:45.710Z,48.42
2019-02-02T20:29:13.456Z,47.24
2019-02-02T20:31:41.248Z,47.38
2019-02-02T20:34:08.986Z,47.99
2019-02-02T20:36:36.749Z,46.93
2019-02-02T20:39:06.405Z,47.55
2019-02-02T20:41:34.161Z,48.27
2019-02-02T20:44:03.566Z,47.10
2019-02-02T20:46:31.436Z,47.75
2019-02-02T20:48:59.215Z,47.24
2019-02-02T20:51:27.033Z,47.25
2019-02-02T20:53:54.797Z,47.94
2019-02-02T20:56:23.550Z,48.45
2019-02-02T20:58:51.513Z,48.57
2019-02-02T21:01:19.326Z,47.86
2019-02-02T21:03:47.149Z,47.07
2019-02-02T21:06:14.998Z,47.86
2019-02-02T21:08:42.862Z,47.41
2019-02-02T21:11:10.912Z,48.12
2019-02-02T21:13:38.765Z,47.58
2019-02-02T21:16:06.537Z,47.21
2019-02-02T21:18:34.380Z,46.39
2019-02-02T21:21:02.593Z,46.08
2019-02-02T21:23:30.397Z,46.94
2019-02-02T21:25:58.152Z,47.84
2019-02-02T21:28:26.015Z,47.93
2019-02-02T21:30:53.858Z,48.25
2019-02-02T21:33:21.826Z,46.11
2019-02-02T21:35:49.687Z,48.31
2019-02-02T21:38:17.590Z,46.93
2019-02-02T21:40:45.410Z,47.50
2019-02-02T21:43:13.231Z,46.45
2019-02-02T21:45:41.170Z,47.63
2019-02-02T21:48:09.016Z,49.03
2019-02-02T21:50:36.828Z,47.06
2019-02-02T21:53:04.669Z,47.53
2019-02-02T21:55:32.439Z,47.12
2019-02-02T21:58:00.276Z,47.31
2019-02-02T22:00:29.140Z,48.13
2019-02-02T22:02:56.957Z,47.68
2019-02-02T22:05:24.801Z,49.69
2019-02-02T22:07:52.625Z,48.78
2019-02-02T22:10:20.601Z,47.45
2019-02-02T22:12:48.464Z,48.03
2019-02-02T22:15:17.652Z,48.27
2019-02-02T22:17:45.525Z,47.78
2019-02-02T22:20:13.303Z,47.57
2019-02-02T22:22:41.150Z,49.57
2019-02-02T22:25:10.574Z,49.96
2019-02-02T22:27:38.535Z,47.32
2019-02-02T22:30:07.414Z,49.98
2019-02-02T22:32:35.261Z,48.08
2019-02-02T22:35:03.347Z,49.36
2019-02-02T22:37:31.165Z,48.25
2019-02-02T22:39:58.951Z,48.66
2019-02-02T22:42:27.133Z,48.46
2019-02-02T22:44:55.005Z,47.66
2019-02-02T22:47:22.882Z,47.70
2019-02-02T22:49:50.997Z,48.37
2019-02-02T22:52:18.809Z,48.11
2019-02-02T22:54:46.587Z,46.75
2019-02-02T22:57:16.080Z,47.57
2019-02-02T22:59:43.945Z,46.69
2019-02-02T23:02:16.282Z,47.27
2019-02-02T23:04:48.928Z,48.17
2019-02-02T23:07:30.597Z,48.90
2019-02-02T23:10:08.221Z,46.70
2019-02-02T23:12:57.824Z,46.37
2019-02-02T23:15:34.593Z,47.49
2019-02-02T23:18:02.600Z,47.28
2019-02-02T23:20:30.677Z,47.91
2019-02-02T23:22:58.530Z,47.13
2019-02-02T23:25:26.615Z,46.79
2019-02-02T23:27:54.445Z,47.07
2019-02-02T23:30:22.328Z,49.29
2019-02-02T23:32:50.176Z,47.94
2019-02-02T23:35:18.324Z,47.98
2019-02-02T23:37:46.186Z,47.64
2019-02-02T23:40:14.085Z,48.73
2019-02-02T23:42:42.069Z,47.07
2019-02-02T23:45:09.957Z,48.70
2019-02-02T23:47:38.026Z,48.37
2019-02-02T23:50:06.157Z,48.15
2019-02-02T23:52:34.299Z,48.22
2019-02-02T23:55:02.394Z,48.02
2019-02-02T23:57:30.416Z,47.18
2019-02-02T23:59:58.242Z,49.58
